Time;durP1;ratioP1;P1;durP2;ratioP2;P2;SDS_P1;SDS_P2;PMS_P1;PMS_P2;Temp;Humidity;BMP_temperature;BMP_pressure;BME280_temperature;BME280_humidity;BME280_pressure;Samples;Min_cycle;Max_cycle;Signal;HPM_P1;HPM_P2
2022/12/05 00:01:14;;;;;;;0.10;0.10;;;8.60;99.90;;;;;;5103314;28;20121;-76
2022/12/05 00:03:40;;;;;;;0.10;0.10;;;8.60;99.90;;;;;;5102957;27;20502;-76
2022/12/05 00:06:06;;;;;;;0.20;0.20;;;8.50;99.90;;;;;;5085313;28;20115;-76
2022/12/05 00:08:35;;;;;;;0.10;0.10;;;8.30;99.90;;;;;;5103962;28;20066;-76
2022/12/05 00:11:01;;;;;;;1.50;1.45;;;8.50;99.90;;;;;;5105935;28;20127;-76
2022/12/05 00:13:26;;;;;;;1.15;1.13;;;7.60;99.90;;;;;;5104546;28;20285;-76
2022/12/05 00:15:52;;;;;;;0.10;0.10;;;8.40;99.90;;;;;;5104938;27;20048;-76
2022/12/05 00:18:18;;;;;;;0.10;0.10;;;8.40;99.90;;;;;;5104564;28;20123;-76
2022/12/05 00:20:48;;;;;;;0.10;0.10;;;8.40;99.90;;;;;;5106423;28;20529;-76
2022/12/05 00:23:14;;;;;;;0.10;0.10;;;8.40;99.90;;;;;;5113507;28;20015;-76
2022/12/05 00:25:40;;;;;;;0.10;0.10;;;8.30;99.90;;;;;;5113115;28;20355;-77
2022/12/05 00:28:06;;;;;;;0.10;0.10;;;8.30;99.90;;;;;;5111906;28;20575;-77
2022/12/05 00:30:32;;;;;;;0.10;0.10;;;8.30;99.90;;;;;;5107361;28;20058;-76
2022/12/05 00:32:58;;;;;;;0.20;0.20;;;8.30;99.90;;;;;;5103550;28;20506;-75
2022/12/05 00:35:24;;;;;;;0.10;0.10;;;8.30;99.90;;;;;;5101381;28;20514;-76
2022/12/05 00:37:50;;;;;;;0.13;0.13;;;;;;;;;;5103630;28;20116;-76
2022/12/05 00:40:16;;;;;;;0.10;0.10;;;8.30;99.90;;;;;;5102233;28;20024;-76
2022/12/05 00:42:41;;;;;;;1.77;1.67;;;8.10;99.90;;;;;;5101186;28;20058;-76
2022/12/05 00:45:08;;;;;;;0.13;0.13;;;;;;;;;;5103613;28;20036;-75
2022/12/05 00:47:35;;;;;;;0.10;0.10;;;8.30;99.90;;;;;;5102772;28;20023;-76
2022/12/05 00:50:02;;;;;;;1.42;1.40;;;;;;;;;;5100343;28;20334;-75
2022/12/05 00:52:27;;;;;;;0.38;0.38;;;8.20;99.90;;;;;;5103286;28;20410;-76
2022/12/05 00:54:53;;;;;;;0.10;0.10;;;8.10;99.90;;;;;;5101823;28;20641;-76
2022/12/05 00:57:19;;;;;;;0.20;0.20;;;7.80;99.90;;;;;;5085876;28;20088;-76
2022/12/05 00:59:45;;;;;;;6.40;6.13;;;8.10;99.90;;;;;;5103458;28;20026;-76
2022/12/05 01:02:10;;;;;;;0.35;0.35;;;8.10;99.90;;;;;;5104048;28;20034;-76
2022/12/05 01:04:36;;;;;;;0.10;0.10;;;;;;;;;;5104526;28;20023;-76
2022/12/05 01:07:02;;;;;;;0.10;0.10;;;;;;;;;;5109315;28;20032;-76
2022/12/05 01:09:29;;;;;;;0.13;0.13;;;8.10;99.90;;;;;;5109524;28;20513;-76
2022/12/05 01:11:54;;;;;;;1.10;1.10;;;8.00;99.90;;;;;;5110161;28;20264;-76
2022/12/05 01:14:23;;;;;;;0.10;0.10;;;8.00;99.90;;;;;;5105985;28;20027;-76
2022/12/05 01:16:51;;;;;;;0.10;0.10;;;7.90;99.90;;;;;;5102203;28;20055;-76
2022/12/05 01:19:21;;;;;;;0.35;0.35;;;7.90;99.90;;;;;;5101386;28;20514;-76
2022/12/05 01:21:47;;;;;;;0.10;0.10;;;;;;;;;;5102928;28;20031;-76
2022/12/05 01:24:13;;;;;;;0.10;0.10;;;7.80;99.90;;;;;;5102277;28;20484;-76
2022/12/05 01:26:41;;;;;;;0.40;0.40;;;7.80;99.90;;;;;;5100867;28;20024;-76
2022/12/05 01:29:07;;;;;;;0.10;0.10;;;7.80;99.90;;;;;;5102560;28;20163;-76
2022/12/05 01:31:35;;;;;;;0.10;0.10;;;7.80;99.90;;;;;;5101685;28;20091;-75
2022/12/05 01:34:03;;;;;;;0.17;0.17;;;7.80;99.90;;;;;;5100318;28;20036;-76
2022/12/05 01:36:29;;;;;;;0.10;0.10;;;7.70;99.90;;;;;;5101137;28;20114;-76
2022/12/05 01:38:56;;;;;;;0.10;0.10;;;7.70;99.90;;;;;;5101852;28;20032;-76
2022/12/05 01:41:25;;;;;;;27.67;25.15;;;7.70;99.90;;;;;;5101270;28;20024;-78
2022/12/05 01:43:58;;;;;;;0.10;0.10;;;7.60;99.90;;;;;;5101936;28;20019;-76
2022/12/05 01:46:24;;;;;;;0.28;0.28;;;7.60;99.90;;;;;;5101176;28;20032;-76
2022/12/05 01:48:54;;;;;;;0.20;0.20;;;7.60;99.90;;;;;;5100191;28;20028;-76
2022/12/05 01:51:21;;;;;;;0.10;0.10;;;7.60;99.90;;;;;;5101216;28;20024;-76
2022/12/05 01:53:46;;;;;;;0.10;0.10;;;7.60;99.90;;;;;;5100701;28;20042;-76
2022/12/05 01:56:13;;;;;;;0.10;0.10;;;7.50;99.90;;;;;;5100824;28;20044;-76
2022/12/05 01:58:43;;;;;;;0.68;0.65;;;7.50;99.90;;;;;;5100781;28;20364;-75
2022/12/05 02:01:11;;;;;;;1.45;1.40;;;7.60;99.90;;;;;;5101836;28;20052;-75
2022/12/05 02:03:39;;;;;;;0.10;0.10;;;7.50;99.90;;;;;;5104861;28;20615;-76
2022/12/05 02:06:05;;;;;;;0.10;0.10;;;7.60;99.90;;;;;;5104955;28;20042;-75
2022/12/05 02:08:31;;;;;;;0.10;0.10;;;7.60;99.90;;;;;;5105237;28;20047;-76
2022/12/05 02:10:57;;;;;;;0.25;0.25;;;7.50;99.90;;;;;;5104834;28;20055;-76
2022/12/05 02:13:44;;;;;;;0.20;0.20;;;7.50;99.90;;;;;;5103652;28;20019;-76
2022/12/05 02:16:21;;;;;;;0.20;0.20;;;7.50;99.90;;;;;;5103708;28;20352;-76
2022/12/05 02:19:11;;;;;;;0.00;0.00;;;7.40;99.90;;;;;;5104754;27;20039;-76
2022/12/05 02:22:02;;;;;;;0.00;0.00;;;7.40;99.90;;;;;;5104351;28;20161;-76
2022/12/05 02:24:45;;;;;;;2.83;2.72;;;7.40;99.90;;;;;;5104567;28;20019;-76
2022/12/05 02:27:41;;;;;;;0.10;0.10;;;7.40;99.90;;;;;;5104258;28;20340;-76
2022/12/05 02:30:16;;;;;;;0.20;0.20;;;7.40;99.90;;;;;;5106121;27;20023;-77
2022/12/05 02:33:04;;;;;;;0.10;0.10;;;7.50;99.90;;;;;;5086045;28;20036;-76
2022/12/05 02:35:53;;;;;;;21.48;20.27;;;7.50;99.90;;;;;;5104383;28;20036;-76
2022/12/05 02:38:38;;;;;;;0.10;0.10;;;7.60;99.90;;;;;;5104223;28;20027;-76
2022/12/05 02:41:44;;;;;;;5.25;5.05;;;7.60;99.90;;;;;;5105197;28;20553;-76
2022/12/05 02:44:35;;;;;;;0.05;0.05;;;7.70;99.90;;;;;;5104219;28;20020;-76
2022/12/05 02:47:02;;;;;;;0.10;0.10;;;7.70;99.90;;;;;;5104326;28;20028;-76
2022/12/05 02:49:31;;;;;;;0.10;0.10;;;7.70;99.90;;;;;;5104787;28;20337;-76
2022/12/05 02:52:00;;;;;;;0.20;0.20;;;10.50;99.90;;;;;;5106171;28;20031;-76
2022/12/05 02:54:30;;;;;;;0.10;0.10;;;7.90;99.90;;;;;;5107731;28;20046;-76
2022/12/05 02:56:58;;;;;;;0.10;0.10;;;7.80;99.90;;;;;;5103842;28;20047;-76
2022/12/05 02:59:24;;;;;;;0.15;0.15;;;7.90;99.90;;;;;;5105775;28;20031;-76
2022/12/05 03:01:50;;;;;;;0.00;0.00;;;7.90;99.90;;;;;;5104032;28;20046;-75
2022/12/05 03:04:18;;;;;;;0.10;0.10;;;8.10;99.90;;;;;;5104878;28;20024;-75
2022/12/05 03:06:50;;;;;;;0.10;0.10;;;7.90;99.90;;;;;;5106714;28;20482;-76
2022/12/05 03:09:23;;;;;;;0.10;0.10;;;8.00;99.90;;;;;;5103555;28;20110;-76
2022/12/05 03:11:53;;;;;;;0.20;0.20;;;8.00;99.90;;;;;;5104704;28;20024;-76
2022/12/05 03:14:23;;;;;;;0.13;0.13;;;7.90;99.90;;;;;;5104806;28;20299;-76
2022/12/05 03:16:52;;;;;;;0.10;0.10;;;7.90;99.90;;;;;;5104130;28;20054;-75
2022/12/05 03:20:01;;;;;;;0.10;0.10;;;7.80;99.90;;;;;;5105573;28;20323;-76
2022/12/05 03:22:45;;;;;;;0.10;0.10;;;8.60;99.90;;;;;;5107130;28;20562;-76
2022/12/05 03:25:12;;;;;;;0.17;0.17;;;7.60;99.90;;;;;;5106038;28;20019;-76
2022/12/05 03:27:49;;;;;;;0.10;0.10;;;7.40;99.90;;;;;;5108581;28;20307;-76
2022/12/05 03:30:18;;;;;;;0.10;0.10;;;7.40;99.90;;;;;;5113121;28;20084;-76
2022/12/05 03:32:50;;;;;;;0.10;0.10;;;7.40;99.90;;;;;;5113531;28;20244;-76
2022/12/05 03:35:46;;;;;;;0.30;0.30;;;7.30;99.90;;;;;;5111866;28;20031;-76
2022/12/05 03:38:33;;;;;;;0.10;0.10;;;7.20;99.90;;;;;;5094795;28;20327;-75
2022/12/05 03:41:15;;;;;;;0.10;0.10;;;7.20;99.90;;;;;;5104206;28;20024;-76
2022/12/05 03:43:58;;;;;;;0.10;0.10;;;7.20;99.90;;;;;;5104294;28;20106;-77
2022/12/05 03:46:31;;;;;;;0.20;0.20;;;7.20;99.90;;;;;;5103452;28;20095;-76
2022/12/05 03:49:03;;;;;;;0.10;0.10;;;7.20;99.90;;;;;;5104429;28;20024;-76
2022/12/05 03:51:36;;;;;;;5.40;5.00;;;7.10;99.90;;;;;;5103661;28;20019;-76
2022/12/05 03:54:19;;;;;;;0.10;0.10;;;7.20;99.90;;;;;;5103502;28;20078;-76
2022/12/05 03:57:21;;;;;;;0.10;0.10;;;6.90;99.90;;;;;;5102406;27;20042;-77
2022/12/05 03:59:56;;;;;;;0.10;0.10;;;7.10;99.90;;;;;;5059351;28;20075;-76
2022/12/05 04:03:01;;;;;;;0.10;0.10;;;7.10;99.90;;;;;;5059438;28;20028;-76
2022/12/05 04:05:38;;;;;;;0.10;0.10;;;7.10;99.90;;;;;;4981380;28;20038;-76
2022/12/05 04:08:13;;;;;;;0.05;0.05;;;7.00;99.90;;;;;;4981258;28;20331;-76
2022/12/05 04:10:49;;;;;;;0.08;0.08;;;6.50;99.90;;;;;;4981640;28;20030;-76
2022/12/05 04:13:43;;;;;;;0.05;0.05;;;7.10;99.90;;;;;;4981977;28;20037;-76
2022/12/05 04:22:23;;;;;;;0.10;0.10;;;7.00;99.90;;;;;;4907583;28;20039;-76
2022/12/05 04:27:49;;;;;;;0.00;0.00;;;7.00;99.90;;;;;;4904967;29;20194;-76
2022/12/05 04:30:22;;;;;;;0.00;0.00;;;7.00;99.90;;;;;;4887916;29;20127;-75
2022/12/05 04:33:27;;;;;;;0.10;0.10;;;7.10;99.90;;;;;;4902937;29;20205;-76
2022/12/05 04:36:01;;;;;;;0.00;0.00;;;7.10;99.90;;;;;;4916023;29;20080;-76
2022/12/05 04:38:37;;;;;;;0.10;0.10;;;7.20;99.90;;;;;;4942862;28;20047;-76
2022/12/05 04:41:06;;;;;;;0.03;0.03;;;7.30;99.90;;;;;;4958390;28;20041;-76
2022/12/05 04:43:38;;;;;;;0.10;0.10;;;7.40;99.90;;;;;;5024130;28;20087;-76
2022/12/05 04:46:07;;;;;;;0.10;0.10;;;7.50;99.90;;;;;;5027901;28;20022;-76
2022/12/05 04:48:37;;;;;;;0.10;0.10;;;7.50;99.90;;;;;;5011914;28;20540;-76
2022/12/05 04:51:06;;;;;;;0.10;0.10;;;7.50;99.90;;;;;;5028157;28;20036;-76
2022/12/05 04:53:32;;;;;;;0.20;0.20;;;7.60;99.90;;;;;;5026522;28;20052;-76
2022/12/05 04:56:01;;;;;;;0.10;0.10;;;7.60;99.90;;;;;;5108128;28;20051;-76
2022/12/05 04:58:28;;;;;;;0.10;0.10;;;7.60;99.90;;;;;;5109025;28;20076;-76
2022/12/05 05:01:06;;;;;;;0.10;0.10;;;7.60;99.90;;;;;;5102671;28;20024;-76
2022/12/05 05:03:37;;;;;;;0.10;0.10;;;7.60;99.90;;;;;;5101092;28;20020;-76
2022/12/05 05:06:03;;;;;;;0.20;0.20;;;7.50;99.90;;;;;;5099289;28;20446;-76
2022/12/05 05:08:30;;;;;;;0.17;0.17;;;7.50;99.90;;;;;;5099552;28;20035;-76
2022/12/05 05:11:04;;;;;;;0.10;0.10;;;6.00;99.90;;;;;;5101640;28;20027;-76
2022/12/05 05:13:29;;;;;;;;;;;7.50;99.90;;;;;;5101492;28;20024;-76
2022/12/05 05:15:55;;;;;;;0.20;0.20;;;7.90;99.90;;;;;;5101923;28;20420;-76
2022/12/05 05:18:21;;;;;;;0.10;0.10;;;7.50;99.90;;;;;;5103926;28;20307;-76
2022/12/05 05:20:46;;;;;;;8.65;7.53;;;7.50;99.90;;;;;;5104511;28;20048;-76
2022/12/05 05:23:13;;;;;;;0.08;0.08;;;7.50;99.90;;;;;;5103122;28;20095;-76
2022/12/05 05:25:39;;;;;;;0.10;0.10;;;7.40;99.90;;;;;;5103323;28;20019;-76
2022/12/05 05:28:05;;;;;;;0.10;0.10;;;7.30;99.90;;;;;;5103991;28;20133;-76
2022/12/05 05:30:31;;;;;;;0.28;0.28;;;7.30;99.90;;;;;;5102925;28;20039;-76
2022/12/05 05:32:59;;;;;;;0.10;0.10;;;7.30;99.90;;;;;;5104029;28;20023;-76
2022/12/05 05:35:25;;;;;;;0.20;0.20;;;7.20;99.90;;;;;;5103721;28;20043;-76
2022/12/05 05:37:52;;;;;;;2.58;2.47;;;;;;;;;;5109738;28;20019;-76
2022/12/05 05:40:18;;;;;;;0.10;0.10;;;7.10;99.90;;;;;;5116057;28;20031;-75
2022/12/05 05:42:45;;;;;;;0.10;0.10;;;7.10;99.90;;;;;;5109028;28;20026;-76
2022/12/05 05:45:12;;;;;;;0.10;0.10;;;7.00;99.90;;;;;;5108475;28;20058;-76
2022/12/05 05:47:40;;;;;;;0.10;0.10;;;7.00;99.90;;;;;;5110796;28;20428;-76
2022/12/05 05:50:07;;;;;;;0.10;0.10;;;6.90;99.90;;;;;;5109048;28;20083;-76
2022/12/05 05:52:35;;;;;;;0.10;0.10;;;6.80;99.90;;;;;;5106940;28;20019;-75
2022/12/05 05:55:02;;;;;;;0.20;0.20;;;6.80;99.90;;;;;;5109084;28;20016;-76
2022/12/05 05:57:28;;;;;;;0.10;0.10;;;6.80;99.90;;;;;;5107289;28;20032;-75
2022/12/05 05:59:53;;;;;;;0.20;0.20;;;6.80;99.90;;;;;;5105655;28;20084;-76
2022/12/05 06:02:19;;;;;;;25.13;24.02;;;6.70;99.90;;;;;;5107470;28;20019;-76
2022/12/05 06:04:46;;;;;;;1.92;1.88;;;6.70;99.90;;;;;;5107493;28;20319;-76
2022/12/05 06:07:13;;;;;;;0.10;0.10;;;6.60;99.90;;;;;;5107618;28;20027;-76
2022/12/05 06:09:42;;;;;;;0.20;0.20;;;6.60;99.90;;;;;;5107966;28;20430;-75
2022/12/05 06:12:08;;;;;;;0.05;0.05;;;8.70;99.90;;;;;;5107999;27;20059;-76
2022/12/05 06:14:34;;;;;;;0.20;0.20;;;6.60;99.90;;;;;;5105395;28;20039;-76
2022/12/05 06:17:00;;;;;;;0.10;0.10;;;6.50;99.90;;;;;;5105789;28;20100;-78
2022/12/05 06:19:25;;;;;;;0.10;0.10;;;6.50;99.90;;;;;;5103915;28;20695;-76
2022/12/05 06:21:51;;;;;;;6.05;5.85;;;3.80;99.90;;;;;;5104799;28;20119;-76
2022/12/05 06:24:20;;;;;;;4.10;3.92;;;6.40;99.90;;;;;;5106847;28;20091;-75
2022/12/05 06:26:46;;;;;;;18.45;17.80;;;;;;;;;;5106882;28;20040;-76
2022/12/05 06:29:12;;;;;;;3.03;2.92;;;6.40;99.90;;;;;;5109143;28;20141;-76
2022/12/05 06:31:37;;;;;;;0.15;0.15;;;6.50;99.90;;;;;;5105701;28;20079;-75
2022/12/05 06:34:03;;;;;;;0.10;0.10;;;6.60;99.90;;;;;;5107411;28;20027;-76
2022/12/05 06:36:30;;;;;;;0.10;0.10;;;7.60;99.90;;;;;;5108398;28;20031;-75
2022/12/05 06:38:57;;;;;;;5.88;5.63;;;6.50;99.90;;;;;;5112363;28;20031;-76
2022/12/05 06:41:26;;;;;;;2.05;1.95;;;6.40;99.90;;;;;;5114923;28;20027;-76
2022/12/05 06:43:57;;;;;;;0.30;0.30;;;7.30;99.90;;;;;;5112323;28;20076;-76
2022/12/05 06:46:24;;;;;;;0.10;0.10;;;6.50;99.90;;;;;;5113052;28;20028;-75
2022/12/05 06:48:55;;;;;;;0.08;0.08;;;6.50;99.90;;;;;;5108653;28;20059;-77
2022/12/05 06:51:20;;;;;;;0.10;0.10;;;6.50;99.90;;;;;;5106954;28;20031;-76
2022/12/05 06:53:46;;;;;;;0.10;0.10;;;6.60;99.90;;;;;;5107520;28;20024;-77
2022/12/05 06:56:14;;;;;;;0.10;0.10;;;6.60;99.90;;;;;;5107400;28;20336;-76
2022/12/05 06:58:42;;;;;;;2.17;1.77;;;6.60;99.90;;;;;;5108527;27;20027;-76
2022/12/05 07:04:03;;;;;;;0.10;0.10;;;6.80;99.90;;;;;;5107181;28;20089;-76
2022/12/05 07:06:29;;;;;;;0.65;0.65;;;6.80;99.90;;;;;;5103962;28;20383;-76
2022/12/05 07:08:55;;;;;;;0.10;0.10;;;6.80;99.90;;;;;;5107667;28;20023;-76
2022/12/05 07:11:21;;;;;;;0.20;0.20;;;6.70;99.90;;;;;;5105724;28;20327;-76
2022/12/05 07:13:47;;;;;;;0.00;0.00;;;6.90;99.90;;;;;;5105879;28;20570;-75
2022/12/05 07:16:13;;;;;;;5.47;2.63;;;7.10;99.90;;;;;;5107576;28;20054;-76
2022/12/05 07:18:38;;;;;;;0.10;0.10;;;6.80;99.90;;;;;;5105211;28;20299;-76
2022/12/05 07:21:07;;;;;;;0.10;0.10;;;6.90;99.90;;;;;;5106757;28;20046;-76
2022/12/05 07:23:33;;;;;;;4.40;4.22;;;6.90;99.90;;;;;;5112388;28;20502;-76
2022/12/05 07:26:04;;;;;;;0.10;0.10;;;7.00;99.90;;;;;;5112860;27;20166;-76
2022/12/05 07:28:30;;;;;;;0.10;0.10;;;7.00;99.90;;;;;;5105836;28;20015;-76
2022/12/05 07:31:04;;;;;;;0.20;0.20;;;6.70;99.90;;;;;;5105484;28;20724;-77
2022/12/05 07:33:30;;;;;;;0.20;0.20;;;7.20;99.90;;;;;;5107615;28;20113;-77
2022/12/05 07:36:05;;;;;;;0.15;0.15;;;7.20;99.90;;;;;;5107203;28;20526;-76
2022/12/05 07:38:31;;;;;;;0.17;0.17;;;7.20;99.90;;;;;;5107162;28;20031;-76
2022/12/05 07:40:57;;;;;;;0.10;0.10;;;7.40;99.90;;;;;;5106096;28;20391;-76
2022/12/05 07:43:23;;;;;;;0.10;0.10;;;7.40;99.90;;;;;;5106596;28;20012;-76
2022/12/05 07:45:49;;;;;;;0.15;0.15;;;7.40;99.90;;;;;;5106313;28;20036;-76
2022/12/05 07:48:17;;;;;;;0.17;0.17;;;7.50;99.90;;;;;;5106728;28;20138;-75
2022/12/05 07:50:43;;;;;;;0.10;0.10;;;7.50;99.90;;;;;;5109559;28;20030;-76
2022/12/05 07:53:08;;;;;;;0.40;0.40;;;7.40;99.90;;;;;;5105571;27;20238;-76
2022/12/05 07:55:36;;;;;;;0.20;0.20;;;7.70;99.90;;;;;;5105898;28;20105;-76
2022/12/05 07:58:02;;;;;;;0.20;0.20;;;7.80;99.90;;;;;;5105753;28;20028;-76
2022/12/05 08:00:27;;;;;;;0.10;0.10;;;7.90;99.90;;;;;;5104558;28;20604;-76
2022/12/05 08:02:53;;;;;;;0.22;0.22;;;8.00;99.90;;;;;;5105910;28;20100;-75
2022/12/05 08:05:19;;;;;;;0.30;0.30;;;8.10;99.90;;;;;;5107064;28;20200;-76
2022/12/05 08:07:45;;;;;;;0.20;0.20;;;8.20;99.90;;;;;;5106626;28;20023;-76
2022/12/05 08:10:10;;;;;;;1.17;1.17;;;8.20;99.90;;;;;;5107287;28;20223;-76
2022/12/05 08:12:37;;;;;;;0.38;0.38;;;8.40;99.90;;;;;;5110252;28;20032;-76
2022/12/05 08:15:03;;;;;;;0.13;0.13;;;8.40;99.90;;;;;;5105955;28;20460;-76
2022/12/05 08:17:31;;;;;;;0.20;0.20;;;8.60;99.90;;;;;;5108651;28;20048;-77
2022/12/05 08:19:56;;;;;;;0.30;0.30;;;8.70;99.90;;;;;;5109592;28;20282;-76
2022/12/05 08:22:22;;;;;;;0.20;0.20;;;8.80;99.90;;;;;;5110955;28;20478;-76
2022/12/05 08:24:52;;;;;;;0.20;0.20;;;8.80;99.90;;;;;;5113818;28;20555;-77
2022/12/05 08:27:18;;;;;;;0.20;0.20;;;8.90;99.90;;;;;;5110347;28;20043;-77
2022/12/05 08:29:43;;;;;;;0.20;0.20;;;9.20;99.90;;;;;;5113907;28;20239;-76
2022/12/05 08:32:09;;;;;;;11.45;3.72;;;9.40;99.90;;;;;;5114538;28;20079;-76
2022/12/05 08:34:37;;;;;;;0.20;0.20;;;9.50;99.90;;;;;;5114249;28;20019;-76
2022/12/05 08:37:02;;;;;;;0.10;0.10;;;9.60;99.90;;;;;;5109096;28;20522;-76
2022/12/05 08:39:28;;;;;;;0.20;0.20;;;9.70;99.90;;;;;;5104163;28;20091;-76
2022/12/05 08:41:55;;;;;;;5.35;5.05;;;9.80;99.90;;;;;;5101473;28;20121;-78
2022/12/05 08:44:21;;;;;;;21.33;14.32;;;9.80;99.90;;;;;;5107581;28;20023;-78
2022/12/05 08:46:48;;;;;;;0.52;0.52;;;10.00;99.90;;;;;;5107433;28;20323;-76
2022/12/05 08:49:15;;;;;;;0.30;0.30;;;10.10;99.90;;;;;;5103485;28;20028;-76
2022/12/05 08:51:42;;;;;;;1.20;1.20;;;10.20;99.90;;;;;;5102251;28;20486;-75
2022/12/05 08:54:08;;;;;;;10.15;9.60;;;10.40;99.90;;;;;;5103470;28;20084;-75
2022/12/05 08:56:35;;;;;;;0.30;0.30;;;10.70;99.90;;;;;;5103531;28;20089;-75
2022/12/05 08:59:04;;;;;;;0.77;0.77;;;10.60;99.90;;;;;;5104154;28;20016;-76
2022/12/05 09:01:30;;;;;;;0.50;0.50;;;10.70;99.90;;;;;;5103703;28;20144;-78
2022/12/05 09:04:01;;;;;;;2.35;2.25;;;10.80;99.90;;;;;;5100777;28;20062;-75
2022/12/05 09:06:28;;;;;;;0.52;0.52;;;10.80;99.90;;;;;;5103002;28;20031;-76
2022/12/05 09:08:58;;;;;;;2.42;2.33;;;10.80;99.90;;;;;;5101885;28;20497;-76
2022/12/05 09:11:27;;;;;;;0.80;0.80;;;10.90;99.90;;;;;;5102334;28;20030;-76
2022/12/05 09:13:54;;;;;;;0.93;0.93;;;11.00;99.90;;;;;;5101728;28;20020;-76
2022/12/05 09:16:23;;;;;;;0.20;0.20;;;11.00;99.90;;;;;;5102721;28;20158;-76
2022/12/05 09:18:50;;;;;;;0.20;0.20;;;11.20;99.90;;;;;;5104566;28;20028;-76
2022/12/05 09:21:19;;;;;;;0.55;0.55;;;11.40;99.90;;;;;;5100578;28;20101;-75
2022/12/05 09:23:45;;;;;;;8.40;7.88;;;11.60;99.90;;;;;;5101553;28;20081;-75
2022/12/05 09:26:14;;;;;;;1.65;1.55;;;11.40;99.90;;;;;;5100969;28;20034;-78
2022/12/05 09:28:43;;;;;;;0.45;0.45;;;11.90;99.90;;;;;;5105227;28;20399;-76
2022/12/05 09:31:13;;;;;;;0.40;0.40;;;12.30;99.90;;;;;;5098430;28;20077;-76
2022/12/05 09:33:40;;;;;;;0.20;0.20;;;12.20;99.90;;;;;;5100201;28;20019;-77
2022/12/05 09:36:11;;;;;;;2.00;1.90;;;12.20;99.90;;;;;;5097504;28;20619;-76
2022/12/05 09:38:37;;;;;;;1.38;1.35;;;12.50;99.90;;;;;;5097007;28;20114;-76
2022/12/05 09:42:03;;;;;;;0.30;0.30;;;12.50;99.90;;;;;;5098337;28;20108;-76
2022/12/05 09:44:44;;;;;;;0.68;0.68;;;12.70;99.90;;;;;;5098799;28;20425;-76
2022/12/05 09:47:33;;;;;;;0.47;0.47;;;12.90;99.90;;;;;;5099388;28;20019;-76
2022/12/05 09:50:02;;;;;;;0.20;0.20;;;13.10;99.90;;;;;;5093282;28;20089;-76
2022/12/05 09:52:32;;;;;;;0.20;0.20;;;13.10;99.90;;;;;;5099223;28;20114;-77
2022/12/05 09:55:21;;;;;;;8.35;6.55;;;13.40;99.90;;;;;;5099413;28;20525;-76
2022/12/05 09:57:56;;;;;;;2.65;2.55;;;13.40;99.90;;;;;;5097777;28;20746;-76
2022/12/05 10:00:22;;;;;;;1.55;1.50;;;13.60;99.90;;;;;;5098266;28;20066;-76
2022/12/05 10:03:07;;;;;;;0.30;0.30;;;13.90;99.90;;;;;;5098721;28;20059;-79
2022/12/05 10:05:45;;;;;;;0.20;0.20;;;13.80;99.90;;;;;;5098301;28;20079;-76
2022/12/05 10:08:20;;;;;;;1.27;1.25;;;13.50;99.90;;;;;;5098112;28;20020;-77
2022/12/05 10:10:56;;;;;;;0.32;0.32;;;13.60;99.90;;;;;;5097998;28;20696;-77
2022/12/05 10:13:54;;;;;;;5.60;5.32;;;13.90;99.90;;;;;;5098032;28;20016;-77
2022/12/05 10:16:36;;;;;;;0.88;0.88;;;14.00;99.90;;;;;;5097883;28;20071;-78
2022/12/05 10:19:15;;;;;;;0.20;0.20;;;14.10;99.90;;;;;;5096291;28;20024;-75
2022/12/05 10:21:53;;;;;;;0.30;0.30;;;14.40;99.90;;;;;;5097864;28;20051;-74
2022/12/05 10:24:39;;;;;;;0.43;0.43;;;14.40;99.90;;;;;;5100860;28;20096;-75
2022/12/05 10:27:08;;;;;;;0.63;0.63;;;14.70;99.90;;;;;;5101683;28;20032;-74
2022/12/05 10:30:02;;;;;;;0.82;0.82;;;14.80;99.90;;;;;;5099719;28;20718;-74
2022/12/05 10:32:30;;;;;;;1.10;1.10;;;15.00;99.90;;;;;;5040790;28;20116;-74
2022/12/05 10:35:13;;;;;;;0.20;0.20;;;15.20;99.90;;;;;;5057498;28;20036;-74
2022/12/05 10:37:39;;;;;;;2.85;2.70;;;15.30;99.90;;;;;;5057499;28;20040;-81
2022/12/05 10:40:10;;;;;;;2.35;2.25;;;15.40;99.90;;;;;;5057380;28;20027;-73
2022/12/05 10:42:36;;;;;;;4.72;4.47;;;15.50;99.90;;;;;;5057805;28;20114;-74
2022/12/05 10:45:07;;;;;;;1.25;1.17;;;15.70;99.90;;;;;;5058034;28;20575;-76
2022/12/05 10:47:34;;;;;;;1.88;1.75;;;15.50;99.90;;;;;;5040572;28;20084;-75
2022/12/05 10:50:13;;;;;;;0.88;0.88;;;15.60;99.90;;;;;;5057414;28;20029;-81
2022/12/05 10:52:38;;;;;;;0.57;0.57;;;15.50;99.90;;;;;;5039801;28;20653;-75
2022/12/05 10:55:07;;;;;;;0.95;0.95;;;15.40;99.90;;;;;;5056512;28;20150;-75
2022/12/05 10:57:32;;;;;;;3.90;3.58;;;15.30;99.90;;;;;;5056509;28;20040;-74
2022/12/05 11:00:13;;;;;;;1.65;1.55;;;15.00;99.90;;;;;;5056873;28;20114;-77
2022/12/05 11:02:40;;;;;;;5.32;3.80;;;15.10;99.90;;;;;;5056787;28;20312;-86
2022/12/05 11:05:06;;;;;;;0.10;0.10;;;15.20;99.90;;;;;;5056484;28;20039;-77
2022/12/05 11:07:42;;;;;;;0.73;0.73;;;15.40;99.90;;;;;;5056306;28;20082;-76
2022/12/05 11:10:24;;;;;;;1.65;1.63;;;15.50;99.90;;;;;;5093098;28;20024;-75
2022/12/05 11:12:50;;;;;;;0.43;0.43;;;15.80;99.90;;;;;;5099964;28;20027;-76
2022/12/05 11:15:21;;;;;;;0.95;0.95;;;16.20;99.90;;;;;;5099573;28;20083;-76
2022/12/05 11:17:48;;;;;;;2.78;2.60;;;16.20;99.90;;;;;;5099556;28;20536;-80
2022/12/05 11:20:17;;;;;;;1.85;1.75;;;16.30;99.90;;;;;;5097865;28;20518;-76
2022/12/05 11:22:46;;;;;;;7.40;7.00;;;16.40;99.90;;;;;;5098887;28;20046;-75
2022/12/05 11:25:27;;;;;;;4.75;4.32;;;16.50;99.90;;;;;;5099497;28;20030;-76
2022/12/05 11:27:53;;;;;;;0.30;0.30;;;16.60;98.80;;;;;;5099522;28;20032;-75
2022/12/05 11:30:23;;;;;;;0.10;0.10;;;16.80;99.10;;;;;;5099643;28;20360;-75
2022/12/05 11:32:50;;;;;;;1.23;1.23;;;16.80;98.10;;;;;;5099452;28;20050;-77
2022/12/05 11:35:16;;;;;;;1.67;1.58;;;18.70;98.70;;;;;;5099542;28;20016;-75
2022/12/05 11:37:54;;;;;;;0.85;0.85;;;16.60;98.70;;;;;;5099662;28;20084;-75
2022/12/05 11:40:48;;;;;;;0.10;0.10;;;16.70;99.40;;;;;;5099400;28;20023;-75
2022/12/05 11:43:34;;;;;;;0.10;0.10;;;16.30;99.20;;;;;;5099387;28;20121;-74
2022/12/05 11:46:21;;;;;;;0.10;0.10;;;16.60;99.30;;;;;;5099250;28;20020;-76
2022/12/05 11:48:59;;;;;;;0.10;0.10;;;15.90;99.90;;;;;;5099221;28;20391;-75
2022/12/05 11:51:33;;;;;;;0.43;0.43;;;15.80;99.90;;;;;;5098244;28;20113;-80
2022/12/05 11:54:29;;;;;;;0.47;0.47;;;15.90;99.90;;;;;;5097170;28;20036;-75
2022/12/05 11:57:06;;;;;;;0.20;0.20;;;15.80;99.90;;;;;;5099737;28;20556;-76
2022/12/05 12:00:03;;;;;;;5.07;4.75;;;16.10;99.90;;;;;;5099235;28;20027;-75
2022/12/05 12:03:01;;;;;;;3.95;3.78;;;16.20;99.90;;;;;;5098893;28;20030;-75
2022/12/05 12:05:34;;;;;;;4.32;4.13;;;16.30;99.90;;;;;;5099256;28;20283;-75
2022/12/05 12:08:23;;;;;;;0.45;0.45;;;16.10;99.90;;;;;;5099180;28;20016;-76
2022/12/05 12:11:05;;;;;;;4.13;2.95;;;16.30;99.90;;;;;;5098589;28;20043;-74
2022/12/05 12:13:43;;;;;;;1.48;1.38;;;16.40;99.90;;;;;;5098654;28;20012;-74
2022/12/05 12:16:21;;;;;;;0.40;0.40;;;16.30;99.90;;;;;;5098845;28;20036;-77
2022/12/05 12:18:49;;;;;;;3.53;2.50;;;16.10;99.90;;;;;;5098472;28;20023;-75
2022/12/05 12:21:53;;;;;;;0.57;0.57;;;16.00;99.90;;;;;;5098835;28;20398;-75
2022/12/05 12:24:25;;;;;;;0.10;0.10;;;15.80;99.90;;;;;;5098286;28;20027;-76
2022/12/05 12:27:16;;;;;;;7.47;7.13;;;15.60;99.90;;;;;;5096873;28;20055;-75
2022/12/05 12:30:05;;;;;;;2.10;2.00;;;15.50;99.90;;;;;;5097231;28;20027;-73
2022/12/05 12:32:55;;;;;;;0.28;0.28;;;15.30;99.90;;;;;;5097972;28;20055;-79
2022/12/05 12:35:42;;;;;;;0.98;0.98;;;15.00;99.90;;;;;;5098873;28;20027;-77
2022/12/05 12:38:23;;;;;;;0.20;0.20;;;14.90;99.90;;;;;;5098648;28;20099;-77
2022/12/05 12:40:53;;;;;;;2.45;1.80;;;14.80;99.90;;;;;;5100176;28;20481;-75
2022/12/05 12:43:47;;;;;;;0.10;0.10;;;14.70;99.90;;;;;;5100693;28;20369;-75
2022/12/05 12:46:32;;;;;;;0.10;0.10;;;14.50;99.90;;;;;;5098867;28;20514;-77
2022/12/05 12:48:57;;;;;;;0.15;0.15;;;14.50;99.90;;;;;;5099154;28;20276;-74
2022/12/05 12:51:23;;;;;;;0.10;0.10;;;14.40;99.90;;;;;;5100185;28;20058;-76
2022/12/05 12:54:08;;;;;;;3.30;3.10;;;14.30;99.90;;;;;;5099303;28;20226;-76
2022/12/05 12:56:51;;;;;;;0.20;0.20;;;14.10;99.90;;;;;;5099497;28;20067;-76
2022/12/05 12:59:38;;;;;;;0.10;0.10;;;14.00;99.90;;;;;;5097521;28;20135;-75
2022/12/05 13:02:21;;;;;;;0.10;0.10;;;13.90;99.90;;;;;;5098838;28;20262;-73
2022/12/05 13:04:59;;;;;;;0.47;0.47;;;13.90;99.90;;;;;;5097097;28;20024;-76
2022/12/05 13:07:54;;;;;;;1.38;1.38;;;13.90;99.90;;;;;;5097010;28;20020;-76
2022/12/05 13:10:23;;;;;;;1.45;1.30;;;13.80;99.90;;;;;;5096599;28;20038;-76
2022/12/05 13:12:50;;;;;;;0.57;0.57;;;13.80;99.90;;;;;;5099010;28;20126;-76
2022/12/05 13:15:43;;;;;;;0.47;0.47;;;13.80;99.90;;;;;;5099213;28;20221;-76
2022/12/05 13:18:16;;;;;;;0.90;0.90;;;13.80;99.90;;;;;;5098034;28;20034;-76
2022/12/05 13:20:43;;;;;;;5.13;4.93;;;13.70;99.90;;;;;;5099126;28;20623;-76
2022/12/05 13:23:15;;;;;;;0.15;0.15;;;13.60;99.90;;;;;;5098914;28;20032;-76
2022/12/05 13:25:44;;;;;;;2.83;2.63;;;13.50;99.90;;;;;;5098269;28;20087;-77
2022/12/05 13:28:34;;;;;;;0.40;0.40;;;13.50;99.90;;;;;;5098438;28;20047;-74
2022/12/05 13:31:01;;;;;;;1.98;1.88;;;11.70;99.90;;;;;;5098646;28;20023;-75
2022/12/05 13:33:48;;;;;;;0.20;0.20;;;13.60;99.90;;;;;;5098351;28;20091;-75